createdAt,value
2019-01-25T00:01:53.435Z,33.67
2019-01-25T00:04:23.962Z,34.70
2019-01-25T00:06:54.531Z,32.13
2019-01-25T00:09:25.090Z,30.80
2019-01-25T00:11:55.510Z,29.07
2019-01-25T00:14:26.064Z,29.40
2019-01-25T00:16:56.540Z,33.63
2019-01-25T00:19:27.056Z,31.43
2019-01-25T00:21:57.558Z,31.57
2019-01-25T00:24:28.070Z,30.90
2019-01-25T00:26:58.581Z,35.17
2019-01-25T00:29:29.089Z,34.57
2019-01-25T00:31:59.557Z,39.70
2019-01-25T00:34:30.078Z,34.97
2019-01-25T00:37:00.592Z,35.57
2019-01-25T00:39:31.062Z,37.87
2019-01-25T00:42:01.594Z,36.10
2019-01-25T00:44:32.067Z,37.00
2019-01-25T00:47:02.560Z,32.90
2019-01-25T00:49:33.246Z,34.10
2019-01-25T00:52:03.814Z,32.20
2019-01-25T00:54:34.324Z,32.10
2019-01-25T00:57:05.186Z,33.67
2019-01-25T00:59:35.647Z,34.43
2019-01-25T01:02:06.309Z,39.97
2019-01-25T01:04:36.938Z,39.33
2019-01-25T01:07:07.539Z,36.90
2019-01-25T01:09:38.197Z,41.10
2019-01-25T01:12:08.802Z,41.73
2019-01-25T01:14:39.259Z,43.07
2019-01-25T01:17:09.727Z,30.17
2019-01-25T01:19:40.238Z,29.00
2019-01-25T01:22:10.809Z,30.50
2019-01-25T01:24:41.278Z,32.83
2019-01-25T01:27:11.773Z,30.23
2019-01-25T01:29:42.235Z,34.07
2019-01-25T01:32:12.835Z,38.33
2019-01-25T01:34:43.328Z,33.80
2019-01-25T01:37:13.890Z,33.40
2019-01-25T01:39:44.378Z,33.07
2019-01-25T01:42:14.846Z,30.23
2019-01-25T01:44:45.338Z,35.03
2019-01-25T01:47:17.380Z,43.63
2019-01-25T01:49:47.980Z,48.40
2019-01-25T01:52:18.473Z,56.93
2019-01-25T01:54:48.919Z,80.53
2019-01-25T01:57:19.434Z,45.73
2019-01-25T01:59:49.893Z,46.30
2019-01-25T02:02:20.353Z,46.43
2019-01-25T02:04:50.861Z,57.93
2019-01-25T02:07:21.391Z,51.53
2019-01-25T02:09:51.891Z,43.73
2019-01-25T02:12:22.445Z,47.13
2019-01-25T02:14:52.903Z,42.77
2019-01-25T02:17:23.367Z,37.60
2019-01-25T02:19:53.860Z,38.90
2019-01-25T02:22:24.366Z,31.63
2019-01-25T02:24:54.825Z,33.27
2019-01-25T02:27:25.342Z,34.90
2019-01-25T02:29:55.811Z,34.80
2019-01-25T02:32:26.315Z,41.97
2019-01-25T02:34:56.813Z,40.43
2019-01-25T02:37:27.364Z,38.53
2019-01-25T02:39:57.870Z,36.77
2019-01-25T02:42:28.333Z,30.43
2019-01-25T02:44:58.825Z,28.03
2019-01-25T02:47:29.345Z,27.47
2019-01-25T02:49:59.857Z,28.70
2019-01-25T02:52:30.325Z,31.17
2019-01-25T02:55:00.784Z,31.13
2019-01-25T02:57:31.285Z,35.80
2019-01-25T03:00:01.813Z,26.97
2019-01-25T03:02:32.274Z,30.43
2019-01-25T03:05:02.728Z,33.93
2019-01-25T03:07:33.209Z,32.87
2019-01-25T03:10:04.441Z,27.90
2019-01-25T03:12:34.984Z,26.50
2019-01-25T03:15:07.028Z,22.43
2019-01-25T03:17:37.554Z,26.77
2019-01-25T03:20:08.410Z,25.40
2019-01-25T03:22:39.065Z,26.27
2019-01-25T03:25:11.488Z,25.67
2019-01-25T03:27:41.947Z,27.03
2019-01-25T03:30:14.227Z,27.77
2019-01-25T03:32:44.703Z,28.60
2019-01-25T03:35:16.171Z,23.70
2019-01-25T03:37:46.880Z,26.83
2019-01-25T03:40:19.783Z,24.70
2019-01-25T03:42:50.385Z,31.37
2019-01-25T03:45:21.293Z,22.87
2019-01-25T03:47:52.031Z,19.97
2019-01-25T03:50:25.326Z,20.30
2019-01-25T03:52:55.879Z,16.57
2019-01-25T03:55:26.705Z,16.70
2019-01-25T03:57:57.277Z,15.50
2019-01-25T04:00:29.443Z,15.87
2019-01-25T04:03:00.148Z,15.23
2019-01-25T04:05:30.765Z,14.23
2019-01-25T04:08:01.228Z,14.20
2019-01-25T04:10:31.836Z,13.77
2019-01-25T04:13:02.293Z,18.60
2019-01-25T04:15:34.285Z,20.83
2019-01-25T04:18:05.163Z,21.13
2019-01-25T04:20:35.765Z,19.87
2019-01-25T04:23:06.332Z,18.73
2019-01-25T04:25:36.879Z,17.73
2019-01-25T04:28:07.753Z,19.00
2019-01-25T04:30:38.232Z,17.90
2019-01-25T04:33:08.724Z,15.93
2019-01-25T04:35:39.181Z,14.83
2019-01-25T04:38:09.726Z,15.17
2019-01-25T04:40:40.221Z,16.30
2019-01-25T04:43:10.672Z,19.87
2019-01-25T04:45:41.166Z,19.83
2019-01-25T04:48:15.454Z,24.70
2019-01-25T04:50:46.048Z,35.17
2019-01-25T04:53:16.540Z,35.00
2019-01-25T04:55:47.036Z,31.70
2019-01-25T04:58:20.845Z,33.67
2019-01-25T05:00:51.296Z,28.33
2019-01-25T05:03:21.811Z,32.90
2019-01-25T05:05:52.364Z,27.43
2019-01-25T05:08:23.410Z,37.87
2019-01-25T05:10:53.945Z,31.03
2019-01-25T05:13:24.400Z,30.23
2019-01-25T05:15:54.903Z,37.63
2019-01-25T05:18:25.395Z,34.13
2019-01-25T05:20:55.958Z,32.53
2019-01-25T05:23:26.417Z,28.80
2019-01-25T05:25:56.875Z,34.07
2019-01-25T05:28:27.342Z,38.43
2019-01-25T05:31:06.564Z,34.43
2019-01-25T05:33:37.024Z,24.87
2019-01-25T05:36:07.854Z,32.37
2019-01-25T05:38:39.825Z,29.77
2019-01-25T05:41:10.324Z,22.33
2019-01-25T05:43:42.164Z,22.87
2019-01-25T05:46:12.776Z,26.83
2019-01-25T05:48:43.281Z,27.30
2019-01-25T05:51:13.780Z,28.97
2019-01-25T05:53:55.020Z,30.93
2019-01-25T05:56:25.645Z,27.20
2019-01-25T05:58:56.111Z,27.63
2019-01-25T06:01:26.592Z,26.60
2019-01-25T06:03:57.173Z,31.73
2019-01-25T06:06:27.703Z,34.93
2019-01-25T06:08:58.216Z,29.10
2019-01-25T06:11:35.226Z,32.60
2019-01-25T06:14:01.316Z,32.23
2019-01-25T06:16:31.882Z,61.03
2019-01-25T06:19:02.386Z,51.83
2019-01-25T06:21:32.921Z,47.33
2019-01-25T06:24:03.444Z,47.57
2019-01-25T06:26:33.947Z,45.83
2019-01-25T06:29:04.505Z,36.87
2019-01-25T06:31:35.007Z,36.83
2019-01-25T06:34:05.648Z,38.70
2019-01-25T06:36:36.122Z,37.13
2019-01-25T06:39:09.250Z,34.40
2019-01-25T06:41:44.196Z,33.83
2019-01-25T06:44:12.030Z,32.03
2019-01-25T06:46:42.537Z,32.00
2019-01-25T06:49:13.004Z,34.53
2019-01-25T06:51:43.508Z,33.07
2019-01-25T06:54:14.008Z,29.13
2019-01-25T06:56:44.511Z,26.27
2019-01-25T06:59:21.152Z,32.10
2019-01-25T07:01:58.534Z,29.53
2019-01-25T07:04:29.063Z,31.83
2019-01-25T07:06:59.572Z,33.43
2019-01-25T07:09:30.085Z,31.13
2019-01-25T07:12:00.605Z,34.53
2019-01-25T07:14:31.075Z,28.83
2019-01-25T07:17:01.534Z,31.70
2019-01-25T07:19:32.056Z,34.73
2019-01-25T07:22:02.515Z,34.10
2019-01-25T07:24:32.972Z,35.77
2019-01-25T07:27:03.472Z,37.70
2019-01-25T07:29:34.021Z,37.17
2019-01-25T07:32:04.924Z,40.47
2019-01-25T07:34:35.381Z,46.20
2019-01-25T07:37:05.977Z,50.23
2019-01-25T07:39:36.546Z,42.17
2019-01-25T07:42:07.026Z,38.30
2019-01-25T07:44:37.545Z,40.20
2019-01-25T07:47:08.025Z,47.80
2019-01-25T07:49:38.701Z,33.70
2019-01-25T07:52:09.301Z,36.17
2019-01-25T07:54:39.799Z,42.50
2019-01-25T07:57:10.256Z,35.73
2019-01-25T07:59:40.894Z,34.27
2019-01-25T08:02:11.458Z,38.20
2019-01-25T08:04:42.068Z,31.93
2019-01-25T08:07:12.553Z,38.10
2019-01-25T08:09:43.078Z,37.77
2019-01-25T08:12:13.592Z,43.00
2019-01-25T08:14:44.050Z,41.40
2019-01-25T08:17:14.658Z,41.47
2019-01-25T08:19:45.159Z,45.10
2019-01-25T08:22:15.698Z,42.70
2019-01-25T08:24:46.162Z,42.77
2019-01-25T08:27:16.842Z,40.63
2019-01-25T08:29:47.361Z,48.33
2019-01-25T08:32:17.997Z,46.53
2019-01-25T08:34:48.493Z,48.83
2019-01-25T08:37:19.073Z,44.97
2019-01-25T08:39:49.572Z,42.67
2019-01-25T08:42:20.061Z,40.20
2019-01-25T08:44:50.544Z,37.70
2019-01-25T08:47:21.000Z,36.60
2019-01-25T08:49:57.830Z,38.70
2019-01-25T08:52:23.675Z,36.50
2019-01-25T08:54:54.205Z,35.43
2019-01-25T08:57:24.790Z,36.90
2019-01-25T08:59:55.215Z,38.67
2019-01-25T09:02:25.842Z,39.97
2019-01-25T09:04:56.286Z,37.27
2019-01-25T09:07:26.751Z,37.07
2019-01-25T09:09:57.264Z,39.67
2019-01-25T09:12:27.763Z,36.77
2019-01-25T09:14:58.233Z,36.43
2019-01-25T09:17:28.773Z,35.80
2019-01-25T09:19:59.274Z,34.97
2019-01-25T09:22:29.797Z,35.87
2019-01-25T09:25:00.278Z,34.67
2019-01-25T09:27:30.746Z,35.47
2019-01-25T09:30:01.243Z,36.17
2019-01-25T09:32:31.702Z,38.93
2019-01-25T09:35:02.308Z,41.73
2019-01-25T09:37:33.041Z,36.03
2019-01-25T09:40:04.183Z,42.43
2019-01-25T09:42:34.641Z,46.73
2019-01-25T09:45:06.033Z,38.97
2019-01-25T09:47:36.501Z,35.13
2019-01-25T09:50:08.505Z,37.23
2019-01-25T09:52:39.017Z,37.40
2019-01-25T09:55:12.414Z,35.63
2019-01-25T09:57:42.929Z,34.37
2019-01-25T10:00:49.648Z,34.80
2019-01-25T10:03:20.161Z,31.73
2019-01-25T10:05:50.921Z,32.47
2019-01-25T10:08:21.487Z,30.87
2019-01-25T10:10:51.957Z,32.93
2019-01-25T10:13:22.476Z,30.57
2019-01-25T10:15:53.197Z,33.00
2019-01-25T10:18:24.938Z,31.10
2019-01-25T10:20:55.551Z,30.57
2019-01-25T10:23:26.045Z,30.70
2019-01-25T10:25:56.548Z,28.70
2019-01-25T10:28:27.059Z,29.83
2019-01-25T10:30:57.585Z,27.80
2019-01-25T10:33:28.053Z,29.03
2019-01-25T10:35:58.621Z,28.00
2019-01-25T10:38:29.222Z,30.93
2019-01-25T10:40:59.685Z,27.57
2019-01-25T10:43:30.369Z,27.17
2019-01-25T10:46:00.993Z,25.97
2019-01-25T10:48:31.470Z,23.47
2019-01-25T10:51:02.045Z,23.07
2019-01-25T10:53:32.565Z,24.40
2019-01-25T10:56:03.186Z,20.17
2019-01-25T10:58:33.798Z,17.73
2019-01-25T11:01:04.485Z,16.60
2019-01-25T11:03:35.095Z,17.57
2019-01-25T11:06:05.991Z,17.10
2019-01-25T11:08:36.528Z,17.83
2019-01-25T11:11:07.081Z,16.43
2019-01-25T11:13:37.577Z,15.90
2019-01-25T11:16:11.968Z,14.03
2019-01-25T11:18:40.585Z,13.97
2019-01-25T11:21:11.366Z,14.80
2019-01-25T11:23:42.011Z,11.73
2019-01-25T11:26:12.739Z,13.17
2019-01-25T11:28:43.238Z,13.03
2019-01-25T11:31:13.746Z,12.50
2019-01-25T11:33:44.229Z,13.77
2019-01-25T11:36:14.822Z,13.03
2019-01-25T11:38:45.399Z,13.03
2019-01-25T11:41:15.912Z,15.23
2019-01-25T11:43:46.550Z,13.83
2019-01-25T11:46:17.015Z,14.27
2019-01-25T11:48:47.534Z,16.93
2019-01-25T11:51:18.005Z,14.80
2019-01-25T11:53:48.511Z,11.60
2019-01-25T11:56:19.009Z,12.37
2019-01-25T11:58:49.538Z,12.13
2019-01-25T12:01:20.041Z,13.00
2019-01-25T12:03:50.556Z,11.87
2019-01-25T12:06:21.018Z,13.77
2019-01-25T12:08:51.640Z,15.17
2019-01-25T12:11:23.133Z,15.23
2019-01-25T12:13:53.614Z,14.00
2019-01-25T12:16:24.146Z,17.67
2019-01-25T12:18:54.618Z,15.13
2019-01-25T12:21:25.153Z,15.50
2019-01-25T12:23:55.734Z,18.50
2019-01-25T12:26:26.258Z,17.30
2019-01-25T12:28:56.769Z,15.03
2019-01-25T12:31:27.302Z,20.87
2019-01-25T12:33:57.774Z,15.73
2019-01-25T12:36:28.294Z,17.03
2019-01-25T12:38:58.756Z,15.80
2019-01-25T12:41:29.234Z,16.63
2019-01-25T12:43:59.752Z,16.33
2019-01-25T12:46:30.273Z,17.07
2019-01-25T12:49:00.785Z,16.43
2019-01-25T12:51:42.296Z,15.30
2019-01-25T12:54:12.803Z,15.53
2019-01-25T12:56:43.293Z,13.93
2019-01-25T12:59:13.897Z,13.87
2019-01-25T13:01:44.477Z,15.57
2019-01-25T13:04:15.079Z,16.50
2019-01-25T13:06:45.538Z,14.57
2019-01-25T13:09:16.175Z,15.43
2019-01-25T13:11:47.479Z,16.10
2019-01-25T13:14:18.069Z,14.83
2019-01-25T13:16:48.537Z,12.73
2019-01-25T13:19:19.054Z,13.97
2019-01-25T13:21:49.633Z,15.27
2019-01-25T13:24:20.145Z,15.90
2019-01-25T13:26:50.649Z,17.07
2019-01-25T13:29:26.010Z,13.50
2019-01-25T13:31:53.429Z,23.27
2019-01-25T13:34:24.042Z,20.30
2019-01-25T13:36:57.234Z,10.90
2019-01-25T13:39:26.897Z,16.83
2019-01-25T13:41:58.545Z,16.13
2019-01-25T13:44:30.353Z,15.17
2019-01-25T13:47:00.965Z,16.57
2019-01-25T13:49:31.672Z,16.73
2019-01-25T13:52:02.129Z,14.43
2019-01-25T13:54:32.649Z,18.30
2019-01-25T13:57:03.186Z,14.07
2019-01-25T13:59:33.656Z,21.47
2019-01-25T14:02:04.362Z,12.13
2019-01-25T14:04:34.977Z,14.47
2019-01-25T14:07:05.685Z,13.00
2019-01-25T14:09:36.209Z,12.63
2019-01-25T14:12:06.721Z,13.87
2019-01-25T14:14:37.185Z,25.37
2019-01-25T14:17:07.922Z,27.23
2019-01-25T14:19:38.404Z,47.13
2019-01-25T14:22:09.057Z,29.27
2019-01-25T14:24:39.526Z,24.87
2019-01-25T14:27:10.008Z,21.33
2019-01-25T14:29:41.860Z,17.67
2019-01-25T14:32:12.337Z,17.80
2019-01-25T14:34:42.864Z,18.77
2019-01-25T14:37:13.428Z,18.13
2019-01-25T14:39:43.959Z,17.43
2019-01-25T14:42:14.423Z,20.80
2019-01-25T14:44:44.886Z,21.37
2019-01-25T14:47:15.503Z,20.13
2019-01-25T14:49:46.053Z,19.50
2019-01-25T14:52:16.517Z,18.43
2019-01-25T14:54:47.086Z,17.07
2019-01-25T14:57:17.644Z,21.50
2019-01-25T14:59:48.311Z,18.50
2019-01-25T15:02:18.822Z,18.83
2019-01-25T15:04:49.328Z,20.63
2019-01-25T15:07:19.905Z,18.47
2019-01-25T15:09:50.391Z,20.47
2019-01-25T15:12:20.910Z,20.57
2019-01-25T15:14:51.439Z,19.20
2019-01-25T15:17:21.957Z,20.83
2019-01-25T15:19:52.417Z,20.27
2019-01-25T15:22:22.966Z,18.10
2019-01-25T15:24:53.459Z,17.13
2019-01-25T15:27:23.991Z,16.40
2019-01-25T15:29:54.519Z,16.73
2019-01-25T15:32:25.133Z,16.67
2019-01-25T15:34:55.701Z,16.37
2019-01-25T15:37:26.219Z,12.93
2019-01-25T15:39:56.697Z,14.93
2019-01-25T15:42:27.202Z,16.00
2019-01-25T15:44:57.671Z,15.77
2019-01-25T15:47:28.174Z,15.53
2019-01-25T15:49:58.645Z,16.33
2019-01-25T15:52:29.163Z,20.13
2019-01-25T15:54:59.642Z,13.07
2019-01-25T15:57:30.159Z,13.67
2019-01-25T16:00:00.621Z,22.93
2019-01-25T16:02:31.236Z,19.40
2019-01-25T16:05:01.706Z,28.73
2019-01-25T16:07:32.220Z,29.20
2019-01-25T16:10:02.723Z,32.90
2019-01-25T16:12:33.264Z,30.43
2019-01-25T16:15:03.820Z,32.00
2019-01-25T16:17:34.272Z,30.97
2019-01-25T16:20:05.547Z,32.83
2019-01-25T16:22:36.051Z,29.97
2019-01-25T16:25:09.007Z,32.97
2019-01-25T16:27:39.462Z,34.47
2019-01-25T16:30:13.121Z,31.10
2019-01-25T16:32:43.577Z,33.47
2019-01-25T16:35:14.423Z,38.37
2019-01-25T16:37:44.979Z,33.43
2019-01-25T16:40:17.236Z,34.87
2019-01-25T16:42:47.815Z,32.23
2019-01-25T16:45:20.926Z,47.83
2019-01-25T16:47:51.371Z,36.33
2019-01-25T16:50:23.822Z,36.23
2019-01-25T16:52:54.011Z,37.20
2019-01-25T16:55:24.467Z,35.53
2019-01-25T16:57:55.022Z,37.83
2019-01-25T17:00:28.011Z,32.30
2019-01-25T17:02:58.591Z,34.17
2019-01-25T17:05:29.261Z,32.77
2019-01-25T17:07:59.870Z,34.93
2019-01-25T17:10:30.538Z,34.17
2019-01-25T17:13:01.032Z,29.80
2019-01-25T17:15:31.525Z,35.63
2019-01-25T17:18:01.981Z,31.53
2019-01-25T17:20:32.705Z,33.47
2019-01-25T17:23:04.806Z,33.00
2019-01-25T17:25:35.785Z,31.37
2019-01-25T17:28:08.190Z,34.80
2019-01-25T17:30:39.751Z,35.33
2019-01-25T17:33:10.256Z,27.67
2019-01-25T17:35:40.713Z,29.03
2019-01-25T17:38:11.356Z,27.67
2019-01-25T17:40:46.761Z,31.20
2019-01-25T17:43:16.694Z,32.17
2019-01-25T17:45:47.297Z,31.70
2019-01-25T17:48:17.802Z,28.77
2019-01-25T17:50:48.289Z,32.10
2019-01-25T17:53:18.791Z,30.00
2019-01-25T17:55:49.276Z,29.10
2019-01-25T17:58:19.729Z,29.50
2019-01-25T18:00:56.922Z,35.50
2019-01-25T18:03:27.405Z,32.77
2019-01-25T18:05:57.980Z,29.80
2019-01-25T18:08:28.488Z,32.30
2019-01-25T18:10:58.951Z,31.37
2019-01-25T18:13:29.444Z,33.70
2019-01-25T18:15:59.943Z,36.27
2019-01-25T18:18:30.395Z,31.20
2019-01-25T18:21:00.854Z,36.67
2019-01-25T18:23:31.352Z,31.40
2019-01-25T18:26:08.709Z,32.40
2019-01-25T18:28:51.358Z,32.40
2019-01-25T18:31:23.301Z,38.83
2019-01-25T18:33:53.802Z,36.63
2019-01-25T18:36:24.267Z,36.10
2019-01-25T18:38:54.776Z,33.03
2019-01-25T18:41:25.342Z,33.33
2019-01-25T18:43:55.839Z,31.93
2019-01-25T18:46:26.297Z,29.27
2019-01-25T18:48:56.797Z,27.37
2019-01-25T18:51:27.287Z,36.53
2019-01-25T18:53:57.785Z,33.13
2019-01-25T18:56:28.501Z,30.17
2019-01-25T18:58:58.953Z,33.20
2019-01-25T19:01:29.412Z,32.60
2019-01-25T19:03:59.969Z,27.60
2019-01-25T19:06:30.461Z,30.17
2019-01-25T19:09:00.929Z,30.00
2019-01-25T19:11:31.459Z,31.60
2019-01-25T19:14:01.912Z,30.73
2019-01-25T19:16:32.408Z,33.90
2019-01-25T19:19:02.860Z,32.40
2019-01-25T19:21:33.369Z,35.23
2019-01-25T19:24:03.975Z,32.07
2019-01-25T19:26:34.524Z,38.50
2019-01-25T19:29:05.221Z,25.87
2019-01-25T19:31:35.684Z,29.20
2019-01-25T19:34:06.398Z,27.40
2019-01-25T19:36:36.957Z,30.13
2019-01-25T19:39:11.504Z,26.70
2019-01-25T19:41:42.219Z,24.63
2019-01-25T19:44:12.806Z,31.20
2019-01-25T19:46:43.608Z,28.73
2019-01-25T19:49:14.073Z,29.77
2019-01-25T19:51:44.589Z,28.73
2019-01-25T19:54:16.256Z,31.93
2019-01-25T19:56:46.701Z,25.73
2019-01-25T19:59:17.183Z,26.40
2019-01-25T20:01:47.641Z,23.63
2019-01-25T20:04:18.337Z,21.50
2019-01-25T20:06:48.848Z,19.47
2019-01-25T20:09:19.302Z,25.47
2019-01-25T20:11:49.949Z,21.77
2019-01-25T20:14:20.413Z,28.63
2019-01-25T20:16:50.904Z,24.87
2019-01-25T20:19:21.354Z,22.00
2019-01-25T20:21:51.844Z,20.90
2019-01-25T20:24:22.335Z,24.53
2019-01-25T20:26:52.893Z,24.00
2019-01-25T20:29:23.384Z,24.10
2019-01-25T20:31:53.988Z,20.23
2019-01-25T20:34:24.497Z,20.80
2019-01-25T20:36:55.063Z,20.57
2019-01-25T20:39:25.575Z,27.13
2019-01-25T20:41:56.147Z,18.23
2019-01-25T20:44:26.656Z,21.57
2019-01-25T20:46:57.115Z,20.67
2019-01-25T20:49:27.635Z,19.57
2019-01-25T20:51:58.193Z,22.07
2019-01-25T20:54:28.642Z,17.93
2019-01-25T20:56:59.101Z,20.53
2019-01-25T20:59:29.681Z,20.63
2019-01-25T21:02:00.134Z,15.73
2019-01-25T21:04:30.645Z,20.30
2019-01-25T21:07:01.105Z,20.37
2019-01-25T21:09:31.557Z,18.63
2019-01-25T21:12:02.070Z,21.47
2019-01-25T21:14:32.573Z,19.07
2019-01-25T21:17:03.055Z,18.43
2019-01-25T21:19:33.577Z,21.90
2019-01-25T21:22:04.232Z,17.43
2019-01-25T21:24:34.741Z,20.53
2019-01-25T21:27:05.188Z,17.23
2019-01-25T21:29:35.719Z,22.00
2019-01-25T21:32:06.351Z,20.07
2019-01-25T21:34:36.800Z,21.23
2019-01-25T21:37:07.406Z,20.70
2019-01-25T21:39:37.876Z,23.20
2019-01-25T21:42:08.356Z,23.03
2019-01-25T21:44:38.829Z,25.30
2019-01-25T21:47:09.433Z,22.70
2019-01-25T21:49:39.888Z,22.07
2019-01-25T21:52:10.372Z,25.93
2019-01-25T21:54:40.815Z,26.33
2019-01-25T21:57:11.328Z,23.30
2019-01-25T21:59:41.896Z,25.67
2019-01-25T22:02:12.468Z,21.37
2019-01-25T22:04:42.953Z,27.90
2019-01-25T22:07:13.575Z,25.93
2019-01-25T22:09:44.049Z,26.23
2019-01-25T22:12:14.669Z,27.27
2019-01-25T22:14:45.292Z,24.57
2019-01-25T22:17:15.813Z,22.43
2019-01-25T22:19:46.334Z,19.63
2019-01-25T22:22:16.848Z,22.60
2019-01-25T22:24:47.328Z,25.80
2019-01-25T22:27:17.861Z,28.40
2019-01-25T22:29:48.477Z,24.93
2019-01-25T22:32:18.960Z,20.87
2019-01-25T22:34:49.591Z,26.30
2019-01-25T22:37:20.116Z,25.97
2019-01-25T22:39:50.608Z,23.90
2019-01-25T22:42:21.174Z,25.33
2019-01-25T22:44:51.623Z,23.13
2019-01-25T22:47:22.120Z,19.53
2019-01-25T22:49:52.583Z,18.90
2019-01-25T22:52:23.089Z,20.77
2019-01-25T22:54:53.585Z,20.57
2019-01-25T22:57:24.040Z,21.07
2019-01-25T22:59:54.487Z,17.20
2019-01-25T23:02:24.992Z,20.97
2019-01-25T23:05:12.426Z,18.87
2019-01-25T23:07:42.952Z,18.83
2019-01-25T23:10:15.908Z,19.87
2019-01-25T23:12:46.369Z,26.30
2019-01-25T23:15:18.400Z,20.40
2019-01-25T23:17:49.106Z,21.60
2019-01-25T23:20:19.661Z,26.97
2019-01-25T23:22:50.119Z,19.67
2019-01-25T23:25:20.712Z,20.63
2019-01-25T23:27:51.198Z,21.77
2019-01-25T23:30:21.855Z,16.60
2019-01-25T23:32:52.362Z,18.47
2019-01-25T23:35:22.823Z,20.67
2019-01-25T23:37:53.294Z,17.40
2019-01-25T23:40:23.821Z,21.77
2019-01-25T23:42:54.383Z,20.97
2019-01-25T23:45:24.950Z,20.13
2019-01-25T23:47:55.456Z,18.40
2019-01-25T23:50:25.956Z,17.30
2019-01-25T23:52:56.412Z,22.63
2019-01-25T23:55:27.019Z,18.20
2019-01-25T23:57:57.482Z,22.27
